Norsul Tubarao — 3FJV6 — position and weather

sailwx.info

Track history (hours):
 
Tides and Currents Weather Stations Pressure Air Temp Water Temp Dewpoint Dewpoint Depression Visibility Wind Speed Wind Dir Waves Ship Positions

Norsul Tubarao

Last reported at 2017-Oct-24 10:27 UTC. Time now 2017-Nov-19 02:58 UTC.
Position N 01°16' E 103°22'.
Warning: this ship's position is 25 days out of date.

Length 175 m; draft 7.3 m.

Type: Cargo ship. MMSI: 373182000.

Date/timePositionNaut miles runAvg speedWind from/ knotsBaromVisibWave heightAir tempDewpointWater temp
2017-Oct-24 10:27N 01°16' E 103°22'614.1
2017-Oct-24 10:01N 01°13' E 103°28'3 5.1
2017-Oct-24 09:30N 01°11' E 103°30'0 0.2
2017-Oct-24 08:59N 01°11' E 103°30'0 0.3
2017-Oct-24 08:30N 01°11' E 103°30'0 0.3
2017-Oct-24 07:59N 01°11' E 103°30'1 2.8
2017-Oct-24 07:30N 01°11' E 103°31'3 5.5
2017-Oct-24 07:00N 01°10' E 103°34'3 5.1
2017-Oct-24 06:31N 01°11' E 103°36'3 5.1
2017-Oct-24 05:59N 01°11' E 103°39'2 4.5
2017-Oct-24 05:31N 01°10' E 103°41'3 5.2
2017-Oct-24 05:01N 01°08' E 103°43'2 4.7
2017-Oct-24 04:31N 01°09' E 103°45'3 6.8
2017-Oct-24 04:01N 01°11' E 103°48'4 7.4
2017-Oct-24 03:31N 01°12' E 103°52'3 6.8
2017-Oct-24 03:00N 01°14' E 103°55'4 7.6
2017-Oct-24 02:31N 01°15' E 103°58'4 7.4
2017-Oct-24 02:00N 01°16' E 104°02'3 4.8
2017-Oct-24 01:29N 01°18' E 104°04'0 0.0
2017-Oct-23 20:27N 01°18' E 104°04'0 0.1
2017-Oct-23 15:45N 01°18' E 104°04'0 0.0
2017-Oct-23 15:21N 01°18' E 104°04'0 0.1
2017-Oct-23 14:51N 01°18' E 104°04'0 0.1
2017-Oct-23 14:27N 01°18' E 104°04'0 0.0
2017-Oct-23 12:33N 01°18' E 104°04'0 0.0
2017-Oct-23 12:03N 01°18' E 104°04'0 0.0
2017-Oct-23 09:09N 01°18' E 104°04'0 0.0
2017-Oct-23 07:57N 01°18' E 104°04'0 0.0
2017-Oct-23 07:30N 01°18' E 104°04'0 0.0
2017-Oct-23 07:01N 01°18' E 104°04'0 0.0
2017-Oct-23 05:15N 01°18' E 104°04'0 0.0
2017-Oct-23 04:48N 01°18' E 104°04'0 0.5
2017-Oct-23 04:18N 01°18' E 104°03'0 0.4
2017-Oct-23 03:49N 01°18' E 104°03'1 1.6
2017-Oct-23 03:30N 01°18' E 104°03'4 7.2
2017-Oct-23 02:58N 01°18' E 104°07'4 6.6
2017-Oct-23 02:19N 01°18' E 104°11'4 6.3
2017-Oct-23 01:42N 01°18' E 104°15'  
2017-Oct-18 12:48N 23°58' E 118°38'415.0
2017-Oct-18 12:31N 24°02' E 118°40'914.9
2017-Oct-18 11:55N 24°11' E 118°43'1414.6
2017-Oct-18 10:55N 24°24' E 118°49'714.7
2017-Oct-18 10:27N 24°31' E 118°52'  
2017-Oct-15 21:55N 24°46' E 118°60'  
Track history (hours):
 
Tides and Currents Weather Stations Pressure Air Temp Water Temp Dewpoint Dewpoint Depression Visibility Wind Speed Wind Dir Waves Ship Positions

Norsul Tubarao

Last reported at 2017-Oct-24 10:27 UTC. Time now 2017-Nov-19 02:58 UTC.
Position N 01°16' E 103°22'.
Warning: this ship's position is 25 days out of date.

Length 175 m; draft 7.3 m.

Type: Cargo ship. MMSI: 373182000.

Date/timePositionNaut miles runAvg speedWind from/ knotsBaromVisibWave heightAir tempDewpointWater temp
2017-Oct-24 10:27N 01°16' E 103°22'614.1
2017-Oct-24 10:01N 01°13' E 103°28'3 5.1
2017-Oct-24 09:30N 01°11' E 103°30'0 0.2
2017-Oct-24 08:59N 01°11' E 103°30'0 0.3
2017-Oct-24 08:30N 01°11' E 103°30'0 0.3
2017-Oct-24 07:59N 01°11' E 103°30'1 2.8
2017-Oct-24 07:30N 01°11' E 103°31'3 5.5
2017-Oct-24 07:00N 01°10' E 103°34'3 5.1
2017-Oct-24 06:31N 01°11' E 103°36'3 5.1
2017-Oct-24 05:59N 01°11' E 103°39'2 4.5
2017-Oct-24 05:31N 01°10' E 103°41'3 5.2
2017-Oct-24 05:01N 01°08' E 103°43'2 4.7
2017-Oct-24 04:31N 01°09' E 103°45'3 6.8
2017-Oct-24 04:01N 01°11' E 103°48'4 7.4
2017-Oct-24 03:31N 01°12' E 103°52'3 6.8
2017-Oct-24 03:00N 01°14' E 103°55'4 7.6
2017-Oct-24 02:31N 01°15' E 103°58'4 7.4
2017-Oct-24 02:00N 01°16' E 104°02'3 4.8
2017-Oct-24 01:29N 01°18' E 104°04'0 0.0
2017-Oct-23 20:27N 01°18' E 104°04'0 0.1
2017-Oct-23 15:45N 01°18' E 104°04'0 0.0
2017-Oct-23 15:21N 01°18' E 104°04'0 0.1
2017-Oct-23 14:51N 01°18' E 104°04'0 0.1
2017-Oct-23 14:27N 01°18' E 104°04'0 0.0
2017-Oct-23 12:33N 01°18' E 104°04'0 0.0
2017-Oct-23 12:03N 01°18' E 104°04'0 0.0
2017-Oct-23 09:09N 01°18' E 104°04'0 0.0
2017-Oct-23 07:57N 01°18' E 104°04'0 0.0
2017-Oct-23 07:30N 01°18' E 104°04'0 0.0
2017-Oct-23 07:01N 01°18' E 104°04'0 0.0
2017-Oct-23 05:15N 01°18' E 104°04'0 0.0
2017-Oct-23 04:48N 01°18' E 104°04'0 0.5
2017-Oct-23 04:18N 01°18' E 104°03'0 0.4
2017-Oct-23 03:49N 01°18' E 104°03'1 1.6
2017-Oct-23 03:30N 01°18' E 104°03'4 7.2
2017-Oct-23 02:58N 01°18' E 104°07'4 6.6
2017-Oct-23 02:19N 01°18' E 104°11'4 6.3
2017-Oct-23 01:42N 01°18' E 104°15'  
2017-Oct-18 12:48N 23°58' E 118°38'415.0
2017-Oct-18 12:31N 24°02' E 118°40'914.9
2017-Oct-18 11:55N 24°11' E 118°43'1414.6
2017-Oct-18 10:55N 24°24' E 118°49'714.7
2017-Oct-18 10:27N 24°31' E 118°52'  
2017-Oct-15 21:55N 24°46' E 118°60'  

Dump ship's entire track history